createdAt,value
2019-04-05T00:00:48.289Z,49.13
2019-04-05T00:03:21.055Z,54.25
2019-04-05T00:05:53.889Z,52.45
2019-04-05T00:08:26.715Z,58.33
2019-04-05T00:10:59.559Z,44.25
2019-04-05T00:13:32.359Z,52.50
2019-04-05T00:16:05.344Z,50.88
2019-04-05T00:18:38.631Z,49.38
2019-04-05T00:21:11.401Z,50.12
2019-04-05T00:23:44.285Z,48.68
2019-04-05T00:26:17.138Z,56.05
2019-04-05T00:28:51.733Z,52.67
2019-04-05T00:31:26.625Z,49.75
2019-04-05T00:34:00.497Z,45.55
2019-04-05T00:36:33.444Z,51.30
2019-04-05T00:39:09.604Z,43.63
2019-04-05T00:41:42.441Z,45.85
2019-04-05T00:44:15.382Z,50.60
2019-04-05T00:46:48.183Z,51.13
2019-04-05T00:49:20.943Z,47.67
2019-04-05T00:51:53.754Z,38.08
2019-04-05T00:54:26.529Z,42.17
2019-04-05T00:56:59.887Z,43.90
2019-04-05T00:59:32.948Z,43.17
2019-04-05T01:02:06.365Z,42.93
2019-04-05T01:04:40.284Z,49.53
2019-04-05T01:07:13.095Z,45.05
2019-04-05T01:09:47.352Z,50.00
2019-04-05T01:12:21.843Z,48.73
2019-04-05T01:14:56.270Z,52.13
2019-04-05T01:17:29.086Z,62.23
2019-04-05T01:20:04.643Z,55.38
2019-04-05T01:22:37.610Z,55.25
2019-04-05T01:25:10.837Z,47.55
2019-04-05T01:27:44.435Z,44.38
2019-04-05T01:30:18.590Z,48.25
2019-04-05T01:32:51.454Z,70.22
2019-04-05T01:35:24.443Z,52.13
2019-04-05T01:37:57.985Z,52.75
2019-04-05T01:40:32.963Z,40.40
2019-04-05T01:43:06.033Z,42.20
2019-04-05T01:45:38.999Z,43.68
2019-04-05T01:48:12.103Z,46.53
2019-04-05T01:50:44.896Z,37.45
2019-04-05T01:53:17.872Z,48.60
2019-04-05T01:55:50.634Z,48.98
2019-04-05T01:58:23.418Z,38.60
2019-04-05T02:00:56.225Z,40.78
2019-04-05T02:03:30.062Z,39.90
2019-04-05T02:06:02.956Z,38.65
2019-04-05T02:08:35.766Z,41.10
2019-04-05T02:11:08.972Z,42.70
2019-04-05T02:13:42.042Z,49.10
2019-04-05T02:16:14.829Z,45.60
2019-04-05T02:18:47.826Z,45.98
2019-04-05T02:21:20.594Z,47.95
2019-04-05T02:23:53.479Z,49.53
2019-04-05T02:26:31.450Z,52.58
2019-04-05T02:29:04.248Z,47.58
2019-04-05T02:31:38.138Z,52.93
2019-04-05T02:34:10.930Z,50.28
2019-04-05T02:36:43.737Z,47.88
2019-04-05T02:39:16.604Z,49.35
2019-04-05T02:41:50.056Z,50.10
2019-04-05T02:44:24.525Z,50.58
2019-04-05T02:46:58.202Z,47.27
2019-04-05T02:49:33.044Z,50.55
2019-04-05T02:52:07.333Z,50.03
2019-04-05T02:54:40.804Z,49.95
2019-04-05T02:57:14.912Z,56.35
2019-04-05T02:59:48.793Z,63.55
2019-04-05T03:02:22.589Z,65.55
2019-04-05T03:04:55.693Z,52.05
2019-04-05T03:07:29.631Z,50.50
2019-04-05T03:10:02.835Z,55.12
2019-04-05T03:12:37.049Z,55.83
2019-04-05T03:15:10.495Z,59.65
2019-04-05T03:17:43.743Z,56.63
2019-04-05T03:20:16.525Z,52.60
2019-04-05T03:22:49.466Z,50.80
2019-04-05T03:25:22.255Z,57.83
2019-04-05T03:27:55.230Z,59.23
2019-04-05T03:30:28.497Z,62.65
2019-04-05T03:33:01.719Z,59.50
2019-04-05T03:35:34.784Z,64.85
2019-04-05T03:38:08.919Z,56.08
2019-04-05T03:40:42.324Z,67.08
2019-04-05T03:43:15.208Z,63.87
2019-04-05T03:45:48.287Z,58.48
2019-04-05T03:48:23.771Z,53.65
2019-04-05T03:50:56.968Z,56.08
2019-04-05T03:53:29.876Z,59.80
2019-04-05T03:56:03.276Z,50.03
2019-04-05T03:58:36.161Z,56.48
2019-04-05T04:01:09.450Z,60.20
2019-04-05T04:03:42.665Z,53.42
2019-04-05T04:06:17.256Z,52.25
2019-04-05T04:08:50.106Z,62.15
2019-04-05T04:11:23.384Z,62.53
2019-04-05T04:13:56.390Z,51.55
2019-04-05T04:16:30.209Z,65.47
2019-04-05T04:19:03.392Z,63.92
2019-04-05T04:22:18.652Z,67.30
2019-04-05T04:24:51.799Z,56.95
2019-04-05T04:27:25.240Z,53.80
2019-04-05T04:30:00.491Z,55.45
2019-04-05T04:32:33.671Z,50.67
2019-04-05T04:35:07.411Z,64.85
2019-04-05T04:37:40.200Z,60.55
2019-04-05T04:40:15.224Z,55.78
2019-04-05T04:42:48.484Z,55.92
2019-04-05T04:45:21.862Z,58.23
2019-04-05T04:47:55.550Z,60.75
2019-04-05T04:50:29.380Z,56.50
2019-04-05T04:53:02.704Z,55.55
2019-04-05T04:55:36.334Z,56.40
2019-04-05T04:58:09.296Z,52.43
2019-04-05T05:00:42.177Z,55.05
2019-04-05T05:03:15.453Z,65.20
2019-04-05T05:05:48.445Z,56.85
2019-04-05T05:08:21.267Z,57.73
2019-04-05T05:10:54.419Z,52.60
2019-04-05T05:13:28.959Z,52.90
2019-04-05T05:16:04.491Z,58.95
2019-04-05T05:18:45.004Z,62.08
2019-04-05T05:21:18.114Z,51.50
2019-04-05T05:23:50.888Z,53.13
2019-04-05T05:26:24.197Z,62.95
2019-04-05T05:28:57.102Z,59.90
2019-04-05T05:31:29.989Z,52.20
2019-04-05T05:34:03.063Z,58.55
2019-04-05T05:36:36.469Z,49.08
2019-04-05T05:39:10.251Z,62.70
2019-04-05T05:41:43.068Z,54.75
2019-04-05T05:44:15.939Z,54.67
2019-04-05T05:46:48.735Z,54.05
2019-04-05T05:49:21.513Z,55.50
2019-04-05T05:51:54.952Z,62.13
2019-04-05T05:54:27.739Z,91.97
2019-04-05T05:57:00.657Z,54.70
2019-04-05T05:59:33.637Z,62.95
2019-04-05T06:02:07.399Z,62.65
2019-04-05T06:04:40.526Z,59.40
2019-04-05T06:07:13.393Z,47.35
2019-04-05T06:09:47.760Z,48.08
2019-04-05T06:12:20.658Z,43.08
2019-04-05T06:14:55.403Z,43.40
2019-04-05T06:17:28.160Z,42.43
2019-04-05T06:20:00.927Z,47.20
2019-04-05T06:22:33.924Z,34.75
2019-04-05T06:25:07.282Z,48.38
2019-04-05T06:27:40.060Z,47.70
2019-04-05T06:30:13.129Z,40.58
2019-04-05T06:32:46.056Z,41.75
2019-04-05T06:35:19.168Z,34.50
2019-04-05T06:37:52.010Z,39.88
2019-04-05T06:40:25.073Z,42.38
2019-04-05T06:42:57.828Z,37.93
2019-04-05T06:45:30.719Z,39.23
2019-04-05T06:48:03.573Z,40.55
2019-04-05T06:50:36.336Z,33.85
2019-04-05T06:53:09.144Z,37.75
2019-04-05T06:55:42.013Z,33.55
2019-04-05T06:58:19.882Z,35.68
2019-04-05T07:00:56.839Z,35.05
2019-04-05T07:03:23.882Z,30.43
2019-04-05T07:05:56.669Z,33.33
2019-04-05T07:08:29.512Z,39.63
2019-04-05T07:11:02.283Z,31.33
2019-04-05T07:13:35.204Z,33.63
2019-04-05T07:16:10.989Z,30.25
2019-04-05T07:18:43.091Z,28.23
2019-04-05T07:21:17.457Z,29.35
2019-04-05T07:23:50.402Z,40.20
2019-04-05T07:26:23.274Z,32.65
2019-04-05T07:28:56.395Z,37.30
2019-04-05T07:31:29.353Z,34.43
2019-04-05T07:34:02.266Z,24.90
2019-04-05T07:36:35.251Z,33.95
2019-04-05T07:39:09.455Z,29.15
2019-04-05T07:41:42.434Z,41.33
2019-04-05T07:44:15.203Z,25.62
2019-04-05T07:46:48.139Z,32.65
2019-04-05T07:49:21.094Z,30.02
2019-04-05T07:51:54.048Z,28.35
2019-04-05T07:54:26.849Z,31.93
2019-04-05T07:57:01.567Z,30.17
2019-04-05T07:59:38.012Z,26.95
2019-04-05T08:02:12.276Z,24.02
2019-04-05T08:04:45.171Z,36.42
2019-04-05T08:07:19.424Z,33.23
2019-04-05T08:09:54.542Z,26.65
2019-04-05T08:12:28.145Z,31.77
2019-04-05T08:15:01.182Z,26.85
2019-04-05T08:17:34.138Z,29.12
2019-04-05T08:20:07.601Z,25.32
2019-04-05T08:22:40.543Z,32.63
2019-04-05T08:25:13.951Z,26.42
2019-04-05T08:27:46.918Z,28.95
2019-04-05T08:30:19.871Z,30.30
2019-04-05T08:32:52.624Z,23.22
2019-04-05T08:35:25.421Z,20.75
2019-04-05T08:37:59.669Z,26.73
2019-04-05T08:40:32.757Z,31.07
2019-04-05T08:43:05.636Z,29.40
2019-04-05T08:45:38.431Z,24.82
2019-04-05T08:48:11.285Z,25.30
2019-04-05T08:50:44.293Z,22.58
2019-04-05T08:53:17.090Z,23.38
2019-04-05T08:55:49.886Z,22.20
2019-04-05T08:58:33.322Z,27.20
2019-04-05T09:00:58.420Z,23.75
2019-04-05T09:03:31.319Z,22.85
2019-04-05T09:06:04.113Z,30.70
2019-04-05T09:08:37.015Z,20.00
2019-04-05T09:11:09.776Z,22.07
2019-04-05T09:13:42.810Z,34.58
2019-04-05T09:16:16.773Z,20.17
2019-04-05T09:18:49.739Z,20.05
2019-04-05T09:21:22.637Z,25.55
2019-04-05T09:23:55.535Z,25.62
2019-04-05T09:26:28.328Z,19.23
2019-04-05T09:29:01.128Z,27.55
2019-04-05T09:31:34.028Z,18.57
2019-04-05T09:34:07.013Z,21.95
2019-04-05T09:36:40.014Z,22.48
2019-04-05T09:39:15.708Z,20.35
2019-04-05T09:41:47.472Z,21.95
2019-04-05T09:44:20.463Z,24.98
2019-04-05T09:46:53.274Z,22.77
2019-04-05T09:49:36.076Z,20.43
2019-04-05T09:52:00.895Z,23.38
2019-04-05T09:54:34.004Z,16.50
2019-04-05T09:57:06.887Z,33.05
2019-04-05T09:59:40.253Z,20.32
2019-04-05T10:02:13.150Z,18.62
2019-04-05T10:04:46.010Z,21.50
2019-04-05T10:07:18.986Z,19.92
2019-04-05T10:09:51.767Z,29.02
2019-04-05T10:12:24.846Z,28.25
2019-04-05T10:14:57.622Z,15.85
2019-04-05T10:17:30.521Z,19.77
2019-04-05T10:20:03.394Z,20.82
2019-04-05T10:22:36.356Z,25.68
2019-04-05T10:25:09.645Z,19.70
2019-04-05T10:27:42.449Z,15.83
2019-04-05T10:30:15.641Z,29.20
2019-04-05T10:32:48.460Z,12.78
2019-04-05T10:35:21.405Z,18.75
2019-04-05T10:37:54.250Z,21.02
2019-04-05T10:40:27.032Z,24.27
2019-04-05T10:42:59.871Z,21.45
2019-04-05T10:45:32.806Z,18.85
2019-04-05T10:48:05.690Z,13.28
2019-04-05T10:50:38.492Z,13.68
2019-04-05T10:53:11.397Z,20.80
2019-04-05T10:55:44.223Z,14.07
2019-04-05T10:58:17.373Z,19.17
2019-04-05T11:00:50.232Z,11.05
2019-04-05T11:03:24.226Z,12.03
2019-04-05T11:05:57.217Z,25.50
2019-04-05T11:08:30.055Z,20.77
2019-04-05T11:11:02.838Z,12.43
2019-04-05T11:13:35.944Z,12.25
2019-04-05T11:16:08.765Z,17.67
2019-04-05T11:18:44.925Z,13.95
2019-04-05T11:21:18.337Z,18.12
2019-04-05T11:23:53.608Z,19.57
2019-04-05T11:26:26.263Z,14.68
2019-04-05T11:28:59.125Z,14.68
2019-04-05T11:31:32.040Z,16.73
2019-04-05T11:34:07.295Z,15.18
2019-04-05T11:36:41.172Z,14.95
2019-04-05T11:39:15.865Z,18.15
2019-04-05T11:41:52.001Z,13.88
2019-04-05T11:44:26.390Z,12.37
2019-04-05T11:46:59.206Z,13.70
2019-04-05T11:49:34.836Z,19.10
2019-04-05T11:52:07.642Z,18.65
2019-04-05T11:54:40.695Z,17.77
2019-04-05T11:57:14.080Z,19.85
2019-04-05T11:59:48.589Z,16.57
2019-04-05T12:02:38.170Z,15.98
2019-04-05T12:05:12.995Z,22.62
2019-04-05T12:07:45.837Z,16.17
2019-04-05T12:10:19.554Z,14.55
2019-04-05T12:12:52.471Z,15.00
2019-04-05T12:15:25.387Z,13.83
2019-04-05T12:17:58.680Z,15.40
2019-04-05T12:20:33.246Z,24.60
2019-04-05T12:23:06.250Z,15.68
2019-04-05T12:25:39.028Z,16.82
2019-04-05T12:28:12.247Z,13.50
2019-04-05T12:30:46.662Z,14.40
2019-04-05T12:33:20.451Z,19.32
2019-04-05T12:35:56.465Z,13.32
2019-04-05T12:38:34.570Z,15.38
2019-04-05T12:41:10.672Z,12.98
2019-04-05T12:43:44.610Z,13.72
2019-04-05T12:46:16.789Z,14.38
2019-04-05T12:48:49.698Z,15.28
2019-04-05T12:51:22.571Z,12.37
2019-04-05T12:53:56.745Z,14.30
2019-04-05T12:56:29.862Z,13.98
2019-04-05T12:59:02.643Z,11.75
2019-04-05T13:01:35.460Z,16.95
2019-04-05T13:04:08.318Z,14.47
2019-04-05T13:06:42.396Z,13.53
2019-04-05T13:09:15.321Z,15.28
2019-04-05T13:11:48.417Z,15.83
2019-04-05T13:14:21.221Z,16.10
2019-04-05T13:16:55.422Z,16.00
2019-04-05T13:19:30.315Z,15.58
2019-04-05T13:22:04.980Z,15.18
2019-04-05T13:24:40.288Z,12.30
2019-04-05T13:27:12.513Z,18.42
2019-04-05T13:29:47.344Z,16.20
2019-04-05T13:32:22.357Z,12.47
2019-04-05T13:34:55.797Z,16.57
2019-04-05T13:37:30.880Z,21.50
2019-04-05T13:40:06.252Z,13.10
2019-04-05T13:42:39.439Z,8.95
2019-04-05T13:45:12.765Z,9.98
2019-04-05T13:47:45.658Z,12.82
2019-04-05T13:50:19.511Z,9.53
2019-04-05T13:52:52.486Z,8.20
2019-04-05T13:55:25.253Z,16.80
2019-04-05T13:58:01.762Z,9.73
2019-04-05T14:00:35.814Z,8.90
2019-04-05T14:03:08.657Z,18.00
2019-04-05T14:05:41.572Z,12.15
2019-04-05T14:08:15.839Z,13.25
2019-04-05T14:10:49.147Z,13.15
2019-04-05T14:13:22.030Z,13.90
2019-04-05T14:15:54.839Z,12.63
2019-04-05T14:18:29.071Z,14.05
2019-04-05T14:21:01.863Z,24.63
2019-04-05T14:23:36.459Z,10.23
2019-04-05T14:26:12.450Z,13.00
2019-04-05T14:28:45.320Z,28.12
2019-04-05T14:31:23.194Z,22.10
2019-04-05T14:33:59.605Z,16.10
2019-04-05T14:36:32.749Z,14.83
2019-04-05T14:39:09.252Z,19.80
2019-04-05T14:41:42.139Z,23.40
2019-04-05T14:44:16.079Z,13.93
2019-04-05T14:46:48.900Z,12.73
2019-04-05T14:49:21.755Z,16.17
2019-04-05T14:51:56.576Z,17.37
2019-04-05T14:54:30.178Z,14.43
2019-04-05T14:57:05.858Z,18.65
2019-04-05T14:59:39.018Z,22.37
2019-04-05T15:02:11.935Z,14.70
2019-04-05T15:04:44.910Z,20.17
2019-04-05T15:07:20.956Z,16.85
2019-04-05T15:09:55.634Z,17.55
2019-04-05T15:12:29.159Z,23.22
2019-04-05T15:15:02.370Z,15.85
2019-04-05T15:17:47.371Z,20.40
2019-04-05T15:20:10.175Z,18.55
2019-04-05T15:22:43.111Z,15.15
2019-04-05T15:25:17.502Z,14.40
2019-04-05T15:27:53.832Z,19.75
2019-04-05T15:30:26.622Z,20.72
2019-04-05T15:33:03.572Z,15.38
2019-04-05T15:35:36.476Z,18.07
2019-04-05T15:38:09.285Z,12.95
2019-04-05T15:40:42.155Z,16.20
2019-04-05T15:43:15.037Z,13.20
2019-04-05T15:45:47.904Z,15.98
2019-04-05T15:48:22.811Z,15.55
2019-04-05T15:50:57.806Z,16.35
2019-04-05T15:53:32.107Z,13.80
2019-04-05T15:56:05.314Z,22.75
2019-04-05T15:58:38.169Z,15.40
2019-04-05T16:01:11.714Z,20.25
2019-04-05T16:03:44.758Z,26.30
2019-04-05T16:06:17.716Z,36.63
2019-04-05T16:08:52.118Z,19.75
2019-04-05T16:11:25.048Z,14.95
2019-04-05T16:13:57.923Z,20.35
2019-04-05T16:16:32.190Z,13.78
2019-04-05T16:19:05.139Z,22.45
2019-04-05T16:21:38.065Z,26.60
2019-04-05T16:24:10.904Z,43.15
2019-04-05T16:26:43.812Z,40.23
2019-04-05T16:29:16.718Z,25.08
2019-04-05T16:31:49.747Z,24.90
2019-04-05T16:34:22.740Z,20.37
2019-04-05T16:36:55.644Z,33.50
2019-04-05T16:39:28.544Z,39.70
2019-04-05T16:42:01.502Z,46.18
2019-04-05T16:44:34.722Z,40.40
2019-04-05T16:47:07.658Z,33.95
2019-04-05T16:49:40.904Z,40.73
2019-04-05T16:52:13.955Z,43.70
2019-04-05T16:54:46.847Z,44.03
2019-04-05T16:57:20.046Z,44.18
2019-04-05T16:59:52.994Z,33.90
2019-04-05T17:02:25.929Z,48.65
2019-04-05T17:04:59.948Z,50.10
2019-04-05T17:07:33.076Z,50.67
2019-04-05T17:10:06.671Z,53.80
2019-04-05T17:12:39.807Z,47.93
2019-04-05T17:15:12.966Z,42.60
2019-04-05T17:17:45.948Z,42.60
2019-04-05T17:20:19.116Z,42.58
2019-04-05T17:22:58.012Z,53.33
2019-04-05T17:25:26.829Z,44.00
2019-04-05T17:28:00.432Z,39.18
2019-04-05T17:30:36.119Z,31.95
2019-04-05T17:33:08.375Z,36.08
2019-04-05T17:35:41.388Z,63.33
2019-04-05T17:38:14.514Z,58.25
2019-04-05T17:40:48.968Z,54.58
2019-04-05T17:43:21.913Z,44.73
2019-04-05T17:45:55.556Z,57.25
2019-04-05T17:48:28.383Z,45.40
2019-04-05T17:51:01.307Z,39.15
2019-04-05T17:53:34.167Z,44.53
2019-04-05T17:56:07.315Z,42.93
2019-04-05T17:58:40.853Z,39.10
2019-04-05T18:01:13.875Z,43.63
2019-04-05T18:03:46.800Z,43.55
2019-04-05T18:06:19.717Z,41.85
2019-04-05T18:08:52.615Z,46.00
2019-04-05T18:11:25.578Z,47.83
2019-04-05T18:13:58.523Z,48.50
2019-04-05T18:16:31.575Z,60.50
2019-04-05T18:19:04.419Z,49.88
2019-04-05T18:21:37.509Z,71.12
2019-04-05T18:24:10.580Z,56.53
2019-04-05T18:26:43.540Z,55.48
2019-04-05T18:29:16.390Z,55.92
2019-04-05T18:31:49.348Z,57.75
2019-04-05T18:34:22.427Z,46.68
2019-04-05T18:36:55.521Z,43.73
2019-04-05T18:39:31.698Z,49.67
2019-04-05T18:42:04.544Z,36.17
2019-04-05T18:44:37.590Z,39.70
2019-04-05T18:47:10.749Z,43.73
2019-04-05T18:49:43.665Z,36.42
2019-04-05T18:52:16.582Z,37.40
2019-04-05T18:54:49.565Z,57.03
2019-04-05T18:57:22.620Z,53.10
2019-04-05T18:59:55.605Z,56.55
2019-04-05T19:02:28.565Z,53.45
2019-04-05T19:05:01.414Z,40.85
2019-04-05T19:07:34.923Z,42.62
2019-04-05T19:10:08.660Z,34.98
2019-04-05T19:12:41.698Z,41.75
2019-04-05T19:15:14.862Z,35.88
2019-04-05T19:17:48.948Z,35.13
2019-04-05T19:20:21.789Z,32.85
2019-04-05T19:22:54.658Z,42.60
2019-04-05T19:25:27.484Z,43.00
2019-04-05T19:28:00.524Z,39.38
2019-04-05T19:48:36.316Z,39.92
2019-04-05T19:51:09.393Z,35.88
2019-04-05T19:53:42.246Z,38.78
2019-04-05T19:56:15.292Z,43.40
2019-04-05T19:58:48.243Z,36.75
2019-04-05T20:01:21.160Z,38.15
2019-04-05T20:03:54.049Z,45.17
2019-04-05T20:06:26.930Z,39.95
2019-04-05T20:08:59.823Z,40.85
2019-04-05T20:11:34.291Z,51.65
2019-04-05T20:14:07.400Z,67.08
2019-04-05T20:16:41.456Z,56.20
2019-04-05T20:19:15.677Z,58.85
2019-04-05T20:21:48.590Z,50.35
2019-04-05T20:24:23.584Z,58.15
2019-04-05T20:26:56.648Z,61.13
2019-04-05T20:29:29.545Z,65.90
2019-04-05T20:32:02.458Z,58.48
2019-04-05T20:34:35.540Z,61.37
2019-04-05T20:37:08.433Z,66.75
2019-04-05T20:39:41.223Z,50.52
2019-04-05T20:42:14.310Z,48.42
2019-04-05T20:44:47.340Z,42.98
2019-04-05T20:47:20.508Z,43.10
2019-04-05T20:49:53.490Z,42.27
2019-04-05T20:52:26.398Z,54.83
2019-04-05T20:55:02.745Z,46.40
2019-04-05T20:57:35.713Z,40.75
2019-04-05T21:00:10.446Z,40.88
2019-04-05T21:02:44.179Z,50.55
2019-04-05T21:05:25.397Z,38.60
2019-04-05T21:07:51.754Z,37.30
2019-04-05T21:10:24.857Z,39.73
2019-04-05T21:12:57.921Z,39.70
2019-04-05T21:15:30.817Z,35.90
2019-04-05T21:18:03.961Z,44.65
2019-04-05T21:20:37.987Z,51.77
2019-04-05T21:23:10.915Z,44.15
2019-04-05T21:25:43.769Z,42.15
2019-04-05T21:28:16.555Z,46.42
2019-04-05T21:30:50.349Z,42.03
2019-04-05T21:33:25.097Z,39.38
2019-04-05T21:35:58.011Z,38.98
2019-04-05T21:38:30.951Z,37.48
2019-04-05T21:41:03.780Z,36.98
2019-04-05T21:43:36.603Z,43.05
2019-04-05T21:46:09.671Z,46.42
2019-04-05T21:48:42.530Z,52.03
2019-04-05T21:51:16.346Z,43.65
2019-04-05T21:53:49.481Z,50.15
2019-04-05T21:56:22.272Z,40.85
2019-04-05T21:58:55.082Z,53.00
2019-04-05T22:01:28.182Z,54.18
2019-04-05T22:04:02.710Z,52.70
2019-04-05T22:06:35.577Z,48.45
2019-04-05T22:09:10.313Z,58.23
2019-04-05T22:11:43.282Z,62.33
2019-04-05T22:14:16.126Z,45.63
2019-04-05T22:16:48.920Z,44.93
2019-04-05T22:19:21.737Z,55.30
2019-04-05T22:21:54.548Z,53.87
2019-04-05T22:24:27.507Z,50.98
2019-04-05T22:27:00.417Z,45.10
2019-04-05T22:29:33.405Z,55.58
2019-04-05T22:32:08.043Z,54.95
2019-04-05T22:34:40.819Z,52.65
2019-04-05T22:37:13.604Z,53.35
2019-04-05T22:39:46.417Z,56.58
2019-04-05T22:42:20.395Z,56.48
2019-04-05T22:44:55.687Z,51.63
2019-04-05T22:47:29.569Z,53.08
2019-04-05T22:50:02.681Z,53.25
2019-04-05T22:52:36.055Z,60.50
2019-04-05T22:55:11.397Z,50.80
2019-04-05T22:57:43.824Z,53.98
2019-04-05T23:00:18.365Z,53.35
2019-04-05T23:02:52.758Z,53.28
2019-04-05T23:05:25.760Z,54.48
2019-04-05T23:07:58.745Z,52.45
2019-04-05T23:10:31.669Z,59.42
2019-04-05T23:13:04.607Z,51.05
2019-04-05T23:15:37.582Z,52.50
2019-04-05T23:18:10.591Z,57.83
2019-04-05T23:20:43.735Z,50.00
2019-04-05T23:23:16.722Z,60.80
2019-04-05T23:25:49.905Z,55.40
2019-04-05T23:28:22.820Z,59.65
2019-04-05T23:30:55.779Z,47.93
2019-04-05T23:33:30.632Z,54.98
2019-04-05T23:36:03.476Z,54.55
2019-04-05T23:38:36.509Z,49.05
2019-04-05T23:41:10.880Z,53.30
2019-04-05T23:43:44.094Z,58.15
2019-04-05T23:46:19.245Z,55.88
2019-04-05T23:48:52.026Z,53.75
2019-04-05T23:51:24.858Z,52.62
2019-04-05T23:53:57.792Z,55.25
2019-04-05T23:56:30.580Z,47.70
2019-04-05T23:59:07.153Z,52.08
